sensor_id;sensor_type;location;lat;lon;timestamp;temperature;humidity
8684;DHT22;4379;59.744;18.206;2023-11-18T00:01:57;-0.20;99.90
8684;DHT22;4379;59.744;18.206;2023-11-18T00:04:24;-0.40;99.90
8684;DHT22;4379;59.744;18.206;2023-11-18T00:06:52;-0.40;99.90
8684;DHT22;4379;59.744;18.206;2023-11-18T00:09:21;-0.40;99.90
8684;DHT22;4379;59.744;18.206;2023-11-18T00:11:51;-0.30;99.90
8684;DHT22;4379;59.744;18.206;2023-11-18T00:14:19;-0.30;99.90
8684;DHT22;4379;59.744;18.206;2023-11-18T00:16:47;-0.30;99.90
8684;DHT22;4379;59.744;18.206;2023-11-18T00:19:14;-0.30;99.90
8684;DHT22;4379;59.744;18.206;2023-11-18T00:21:41;-0.40;99.90
8684;DHT22;4379;59.744;18.206;2023-11-18T00:24:09;-0.30;99.90
8684;DHT22;4379;59.744;18.206;2023-11-18T00:26:37;-0.30;99.90
8684;DHT22;4379;59.744;18.206;2023-11-18T00:29:04;-0.30;99.90
8684;DHT22;4379;59.744;18.206;2023-11-18T00:31:31;-0.30;99.90
8684;DHT22;4379;59.744;18.206;2023-11-18T00:33:58;-0.40;99.90
8684;DHT22;4379;59.744;18.206;2023-11-18T00:36:25;-0.30;99.90
8684;DHT22;4379;59.744;18.206;2023-11-18T00:38:53;-0.40;99.90
8684;DHT22;4379;59.744;18.206;2023-11-18T00:41:20;-0.30;99.90
8684;DHT22;4379;59.744;18.206;2023-11-18T00:43:48;-0.40;99.90
8684;DHT22;4379;59.744;18.206;2023-11-18T00:46:15;-0.40;99.90
8684;DHT22;4379;59.744;18.206;2023-11-18T00:48:42;-0.40;99.90
8684;DHT22;4379;59.744;18.206;2023-11-18T00:51:10;-0.40;99.90
8684;DHT22;4379;59.744;18.206;2023-11-18T00:53:37;-0.40;99.90
8684;DHT22;4379;59.744;18.206;2023-11-18T00:56:04;-0.30;99.90
8684;DHT22;4379;59.744;18.206;2023-11-18T00:58:35;-0.30;99.90
8684;DHT22;4379;59.744;18.206;2023-11-18T01:01:07;-0.40;99.90
8684;DHT22;4379;59.744;18.206;2023-11-18T01:03:34;-0.40;99.90
8684;DHT22;4379;59.744;18.206;2023-11-18T01:06:01;-0.40;99.90
8684;DHT22;4379;59.744;18.206;2023-11-18T01:08:29;-0.40;99.90
8684;DHT22;4379;59.744;18.206;2023-11-18T01:10:56;-0.50;99.90
8684;DHT22;4379;59.744;18.206;2023-11-18T01:13:23;-0.50;99.90
8684;DHT22;4379;59.744;18.206;2023-11-18T01:15:50;-0.50;99.90
8684;DHT22;4379;59.744;18.206;2023-11-18T01:18:17;-0.60;99.90
8684;DHT22;4379;59.744;18.206;2023-11-18T01:20:45;-0.60;99.90
8684;DHT22;4379;59.744;18.206;2023-11-18T01:23:12;-0.40;99.90
8684;DHT22;4379;59.744;18.206;2023-11-18T01:25:39;-0.40;99.90
8684;DHT22;4379;59.744;18.206;2023-11-18T01:28:07;-0.40;99.90
8684;DHT22;4379;59.744;18.206;2023-11-18T01:30:34;-0.50;99.90
8684;DHT22;4379;59.744;18.206;2023-11-18T01:33:01;-0.40;99.90
8684;DHT22;4379;59.744;18.206;2023-11-18T01:35:28;-0.40;99.90
8684;DHT22;4379;59.744;18.206;2023-11-18T01:37:55;-0.40;99.90
8684;DHT22;4379;59.744;18.206;2023-11-18T01:40:22;-0.30;99.90
8684;DHT22;4379;59.744;18.206;2023-11-18T01:42:50;-0.30;99.90
8684;DHT22;4379;59.744;18.206;2023-11-18T01:45:17;-0.40;99.90
8684;DHT22;4379;59.744;18.206;2023-11-18T01:47:44;-0.30;99.90
8684;DHT22;4379;59.744;18.206;2023-11-18T01:50:15;-0.40;99.90
8684;DHT22;4379;59.744;18.206;2023-11-18T01:52:45;-0.50;99.90
8684;DHT22;4379;59.744;18.206;2023-11-18T01:55:13;-0.50;99.90
8684;DHT22;4379;59.744;18.206;2023-11-18T01:57:40;-0.50;99.90
8684;DHT22;4379;59.744;18.206;2023-11-18T02:00:11;-0.40;99.90
8684;DHT22;4379;59.744;18.206;2023-11-18T02:02:39;-0.40;99.90
8684;DHT22;4379;59.744;18.206;2023-11-18T02:05:07;-0.40;99.90
8684;DHT22;4379;59.744;18.206;2023-11-18T02:07:35;-0.50;99.90
8684;DHT22;4379;59.744;18.206;2023-11-18T02:10:05;-0.60;99.90
8684;DHT22;4379;59.744;18.206;2023-11-18T02:12:46;-0.60;99.90
8684;DHT22;4379;59.744;18.206;2023-11-18T02:15:16;-0.50;99.90
8684;DHT22;4379;59.744;18.206;2023-11-18T02:17:45;-0.40;99.90
8684;DHT22;4379;59.744;18.206;2023-11-18T02:20:13;-0.60;99.90
8684;DHT22;4379;59.744;18.206;2023-11-18T02:22:43;-0.70;99.90
8684;DHT22;4379;59.744;18.206;2023-11-18T02:25:16;-0.70;99.90
8684;DHT22;4379;59.744;18.206;2023-11-18T02:27:43;-0.60;99.90
8684;DHT22;4379;59.744;18.206;2023-11-18T02:30:13;-0.60;99.90
8684;DHT22;4379;59.744;18.206;2023-11-18T02:32:48;-0.60;99.90
8684;DHT22;4379;59.744;18.206;2023-11-18T02:35:24;-0.60;99.90
8684;DHT22;4379;59.744;18.206;2023-11-18T02:37:55;-0.70;99.90
8684;DHT22;4379;59.744;18.206;2023-11-18T02:40:37;-0.80;99.90
8684;DHT22;4379;59.744;18.206;2023-11-18T02:43:06;-0.80;99.90
8684;DHT22;4379;59.744;18.206;2023-11-18T02:45:35;-0.80;99.90
8684;DHT22;4379;59.744;18.206;2023-11-18T02:48:04;-0.80;99.90
8684;DHT22;4379;59.744;18.206;2023-11-18T02:50:33;-0.80;99.90
8684;DHT22;4379;59.744;18.206;2023-11-18T02:53:02;-0.80;99.90
8684;DHT22;4379;59.744;18.206;2023-11-18T02:55:29;-0.80;99.90
8684;DHT22;4379;59.744;18.206;2023-11-18T02:57:57;-0.60;99.90
8684;DHT22;4379;59.744;18.206;2023-11-18T03:00:24;-0.60;99.90
8684;DHT22;4379;59.744;18.206;2023-11-18T03:02:51;-0.70;99.90
8684;DHT22;4379;59.744;18.206;2023-11-18T03:05:20;-0.60;99.90
8684;DHT22;4379;59.744;18.206;2023-11-18T03:07:48;-0.70;99.90
8684;DHT22;4379;59.744;18.206;2023-11-18T03:10:21;-0.70;99.90
8684;DHT22;4379;59.744;18.206;2023-11-18T03:12:53;-0.80;99.90
8684;DHT22;4379;59.744;18.206;2023-11-18T03:15:21;-0.70;99.90
8684;DHT22;4379;59.744;18.206;2023-11-18T03:17:49;-0.70;99.90
8684;DHT22;4379;59.744;18.206;2023-11-18T03:20:18;-0.70;99.90
8684;DHT22;4379;59.744;18.206;2023-11-18T03:22:50;-0.80;99.90
8684;DHT22;4379;59.744;18.206;2023-11-18T03:25:19;-0.90;99.90
8684;DHT22;4379;59.744;18.206;2023-11-18T03:27:48;-0.90;99.90
8684;DHT22;4379;59.744;18.206;2023-11-18T03:30:15;-1.00;99.90
8684;DHT22;4379;59.744;18.206;2023-11-18T03:32:44;-0.90;99.90
8684;DHT22;4379;59.744;18.206;2023-11-18T03:35:11;-1.00;99.90
8684;DHT22;4379;59.744;18.206;2023-11-18T03:37:39;-1.00;99.90
8684;DHT22;4379;59.744;18.206;2023-11-18T03:42:35;-0.70;99.90
8684;DHT22;4379;59.744;18.206;2023-11-18T03:45:04;-0.70;99.90
8684;DHT22;4379;59.744;18.206;2023-11-18T03:47:32;-0.70;99.90
8684;DHT22;4379;59.744;18.206;2023-11-18T03:50:01;-0.80;99.90
8684;DHT22;4379;59.744;18.206;2023-11-18T03:52:28;-0.80;99.90
8684;DHT22;4379;59.744;18.206;2023-11-18T03:54:56;-0.70;99.90
8684;DHT22;4379;59.744;18.206;2023-11-18T03:57:26;-0.80;99.90
8684;DHT22;4379;59.744;18.206;2023-11-18T03:59:53;-0.80;99.90
8684;DHT22;4379;59.744;18.206;2023-11-18T04:02:20;-0.70;99.90
8684;DHT22;4379;59.744;18.206;2023-11-18T04:04:48;-0.80;99.90
8684;DHT22;4379;59.744;18.206;2023-11-18T04:07:15;-0.80;99.90
8684;DHT22;4379;59.744;18.206;2023-11-18T04:09:42;-0.80;99.90
8684;DHT22;4379;59.744;18.206;2023-11-18T04:12:10;-0.80;99.90
8684;DHT22;4379;59.744;18.206;2023-11-18T04:14:37;-0.80;99.90
8684;DHT22;4379;59.744;18.206;2023-11-18T04:17:05;-0.70;99.90
8684;DHT22;4379;59.744;18.206;2023-11-18T04:19:34;-0.80;99.90
8684;DHT22;4379;59.744;18.206;2023-11-18T04:22:01;-0.80;99.90
8684;DHT22;4379;59.744;18.206;2023-11-18T04:24:28;-0.80;99.90
8684;DHT22;4379;59.744;18.206;2023-11-18T04:26:56;-0.90;99.90
8684;DHT22;4379;59.744;18.206;2023-11-18T04:29:24;-0.90;99.90
8684;DHT22;4379;59.744;18.206;2023-11-18T04:31:51;-0.90;99.90
8684;DHT22;4379;59.744;18.206;2023-11-18T04:34:20;-0.80;99.90
8684;DHT22;4379;59.744;18.206;2023-11-18T04:36:47;-0.60;99.90
8684;DHT22;4379;59.744;18.206;2023-11-18T04:39:14;-0.70;99.90
8684;DHT22;4379;59.744;18.206;2023-11-18T04:41:42;-0.70;99.90
8684;DHT22;4379;59.744;18.206;2023-11-18T04:44:10;-0.70;99.90
8684;DHT22;4379;59.744;18.206;2023-11-18T04:46:37;-0.70;99.90
8684;DHT22;4379;59.744;18.206;2023-11-18T04:49:04;-0.70;99.90
8684;DHT22;4379;59.744;18.206;2023-11-18T04:51:32;-0.80;99.90
8684;DHT22;4379;59.744;18.206;2023-11-18T04:54:00;-0.70;99.90
8684;DHT22;4379;59.744;18.206;2023-11-18T04:56:27;-0.70;99.90
8684;DHT22;4379;59.744;18.206;2023-11-18T04:58:54;-0.60;99.90
8684;DHT22;4379;59.744;18.206;2023-11-18T05:01:21;-0.70;99.90
8684;DHT22;4379;59.744;18.206;2023-11-18T05:03:48;-0.80;99.90
8684;DHT22;4379;59.744;18.206;2023-11-18T05:06:16;-0.80;99.90
8684;DHT22;4379;59.744;18.206;2023-11-18T05:08:43;-0.80;99.90
8684;DHT22;4379;59.744;18.206;2023-11-18T05:11:10;-0.80;99.90
8684;DHT22;4379;59.744;18.206;2023-11-18T05:13:37;-0.80;99.90
8684;DHT22;4379;59.744;18.206;2023-11-18T05:16:07;-0.90;99.90
8684;DHT22;4379;59.744;18.206;2023-11-18T05:18:34;-1.00;99.90
8684;DHT22;4379;59.744;18.206;2023-11-18T05:21:04;-1.00;99.90
8684;DHT22;4379;59.744;18.206;2023-11-18T05:23:35;-0.90;99.90
8684;DHT22;4379;59.744;18.206;2023-11-18T05:26:05;-0.80;99.90
8684;DHT22;4379;59.744;18.206;2023-11-18T05:28:33;-0.80;99.90
8684;DHT22;4379;59.744;18.206;2023-11-18T05:31:01;-0.70;99.90
8684;DHT22;4379;59.744;18.206;2023-11-18T05:33:31;-0.70;99.90
8684;DHT22;4379;59.744;18.206;2023-11-18T05:36:01;-0.90;99.90
8684;DHT22;4379;59.744;18.206;2023-11-18T05:38:32;-0.80;99.90
8684;DHT22;4379;59.744;18.206;2023-11-18T05:41:02;-0.80;99.90
8684;DHT22;4379;59.744;18.206;2023-11-18T05:43:32;-0.80;99.90
8684;DHT22;4379;59.744;18.206;2023-11-18T05:46:08;-0.70;99.90
8684;DHT22;4379;59.744;18.206;2023-11-18T05:48:49;-0.80;99.90
8684;DHT22;4379;59.744;18.206;2023-11-18T05:51:24;-0.70;99.90
8684;DHT22;4379;59.744;18.206;2023-11-18T05:53:52;-0.90;99.90
8684;DHT22;4379;59.744;18.206;2023-11-18T05:56:20;-1.00;99.90
8684;DHT22;4379;59.744;18.206;2023-11-18T05:58:51;-0.90;99.90
8684;DHT22;4379;59.744;18.206;2023-11-18T06:01:21;-1.10;99.90
8684;DHT22;4379;59.744;18.206;2023-11-18T06:03:49;-1.10;99.90
8684;DHT22;4379;59.744;18.206;2023-11-18T06:06:17;-1.20;99.90
8684;DHT22;4379;59.744;18.206;2023-11-18T06:08:50;-1.20;99.90
8684;DHT22;4379;59.744;18.206;2023-11-18T06:11:17;-1.20;99.90
8684;DHT22;4379;59.744;18.206;2023-11-18T06:13:51;-1.20;99.90
8684;DHT22;4379;59.744;18.206;2023-11-18T06:16:22;-1.30;99.90
8684;DHT22;4379;59.744;18.206;2023-11-18T06:18:54;-1.50;99.90
8684;DHT22;4379;59.744;18.206;2023-11-18T06:21:26;-1.60;99.90
8684;DHT22;4379;59.744;18.206;2023-11-18T06:23:58;-1.50;99.90
8684;DHT22;4379;59.744;18.206;2023-11-18T06:26:27;-1.50;99.90
8684;DHT22;4379;59.744;18.206;2023-11-18T06:28:55;-1.50;99.90
8684;DHT22;4379;59.744;18.206;2023-11-18T06:31:23;-1.50;99.90
8684;DHT22;4379;59.744;18.206;2023-11-18T06:33:53;-1.50;99.90
8684;DHT22;4379;59.744;18.206;2023-11-18T06:36:20;-1.50;99.90
8684;DHT22;4379;59.744;18.206;2023-11-18T06:38:49;-1.60;99.90
8684;DHT22;4379;59.744;18.206;2023-11-18T06:41:19;-1.50;99.90
8684;DHT22;4379;59.744;18.206;2023-11-18T06:43:46;-1.60;99.90
8684;DHT22;4379;59.744;18.206;2023-11-18T06:46:29;-1.60;99.90
8684;DHT22;4379;59.744;18.206;2023-11-18T06:49:01;-1.80;99.90
8684;DHT22;4379;59.744;18.206;2023-11-18T06:51:32;-1.70;99.90
8684;DHT22;4379;59.744;18.206;2023-11-18T06:54:04;-1.80;99.90
8684;DHT22;4379;59.744;18.206;2023-11-18T06:56:41;-1.70;99.90
8684;DHT22;4379;59.744;18.206;2023-11-18T06:59:13;-1.90;99.90
8684;DHT22;4379;59.744;18.206;2023-11-18T07:01:42;-2.00;99.90
8684;DHT22;4379;59.744;18.206;2023-11-18T07:04:12;-1.90;99.90
8684;DHT22;4379;59.744;18.206;2023-11-18T07:06:42;-2.00;99.90
8684;DHT22;4379;59.744;18.206;2023-11-18T07:09:10;-2.00;99.90
8684;DHT22;4379;59.744;18.206;2023-11-18T07:11:45;-1.90;99.90
8684;DHT22;4379;59.744;18.206;2023-11-18T07:14:14;-1.90;99.90
8684;DHT22;4379;59.744;18.206;2023-11-18T07:16:42;-2.00;99.90
8684;DHT22;4379;59.744;18.206;2023-11-18T07:19:10;-2.00;99.90
8684;DHT22;4379;59.744;18.206;2023-11-18T07:21:44;-2.00;99.90
8684;DHT22;4379;59.744;18.206;2023-11-18T07:24:11;-1.90;99.90
8684;DHT22;4379;59.744;18.206;2023-11-18T07:26:39;-1.90;99.90
8684;DHT22;4379;59.744;18.206;2023-11-18T07:29:06;-1.90;99.90
8684;DHT22;4379;59.744;18.206;2023-11-18T07:31:36;-1.90;99.90
8684;DHT22;4379;59.744;18.206;2023-11-18T07:34:04;-1.90;99.90
8684;DHT22;4379;59.744;18.206;2023-11-18T07:36:33;-2.00;99.90
8684;DHT22;4379;59.744;18.206;2023-11-18T07:39:00;-2.00;99.90
8684;DHT22;4379;59.744;18.206;2023-11-18T07:41:28;-2.30;99.90
8684;DHT22;4379;59.744;18.206;2023-11-18T07:44:00;-2.30;99.90
8684;DHT22;4379;59.744;18.206;2023-11-18T07:46:28;-2.20;99.90
8684;DHT22;4379;59.744;18.206;2023-11-18T07:48:58;-2.20;99.90
8684;DHT22;4379;59.744;18.206;2023-11-18T07:51:31;-2.20;99.90
8684;DHT22;4379;59.744;18.206;2023-11-18T07:53:58;-2.20;99.90
8684;DHT22;4379;59.744;18.206;2023-11-18T07:56:26;-2.20;99.90
8684;DHT22;4379;59.744;18.206;2023-11-18T07:58:58;-2.30;99.90
8684;DHT22;4379;59.744;18.206;2023-11-18T08:01:25;-2.30;99.90
8684;DHT22;4379;59.744;18.206;2023-11-18T08:03:54;-2.40;99.90
8684;DHT22;4379;59.744;18.206;2023-11-18T08:06:21;-2.40;99.90
8684;DHT22;4379;59.744;18.206;2023-11-18T08:08:48;-2.40;99.90
8684;DHT22;4379;59.744;18.206;2023-11-18T08:11:15;-2.30;99.90
8684;DHT22;4379;59.744;18.206;2023-11-18T08:13:43;-2.40;99.90
8684;DHT22;4379;59.744;18.206;2023-11-18T08:16:11;-2.60;99.90
8684;DHT22;4379;59.744;18.206;2023-11-18T08:18:39;-2.50;99.90
8684;DHT22;4379;59.744;18.206;2023-11-18T08:21:07;-2.60;99.90
8684;DHT22;4379;59.744;18.206;2023-11-18T08:23:34;-2.50;99.90
8684;DHT22;4379;59.744;18.206;2023-11-18T08:26:01;-2.50;99.90
8684;DHT22;4379;59.744;18.206;2023-11-18T08:28:28;-2.60;99.90
8684;DHT22;4379;59.744;18.206;2023-11-18T08:30:55;-2.60;99.90
8684;DHT22;4379;59.744;18.206;2023-11-18T08:33:23;-2.70;99.90
8684;DHT22;4379;59.744;18.206;2023-11-18T08:35:51;-2.80;99.90
8684;DHT22;4379;59.744;18.206;2023-11-18T08:38:18;-2.60;99.90
8684;DHT22;4379;59.744;18.206;2023-11-18T08:40:46;-2.50;99.90
8684;DHT22;4379;59.744;18.206;2023-11-18T08:43:15;-2.60;99.90
8684;DHT22;4379;59.744;18.206;2023-11-18T08:45:43;-2.50;99.90
8684;DHT22;4379;59.744;18.206;2023-11-18T08:48:11;-2.60;99.90
8684;DHT22;4379;59.744;18.206;2023-11-18T08:50:38;-2.60;99.90
8684;DHT22;4379;59.744;18.206;2023-11-18T08:53:10;-2.50;99.90
8684;DHT22;4379;59.744;18.206;2023-11-18T08:55:39;-2.50;99.90
8684;DHT22;4379;59.744;18.206;2023-11-18T08:58:10;-2.50;99.90
8684;DHT22;4379;59.744;18.206;2023-11-18T09:00:57;-2.30;99.90
8684;DHT22;4379;59.744;18.206;2023-11-18T09:03:33;-2.30;99.90
8684;DHT22;4379;59.744;18.206;2023-11-18T09:06:06;-2.40;99.90
8684;DHT22;4379;59.744;18.206;2023-11-18T09:08:38;-2.50;99.90
8684;DHT22;4379;59.744;18.206;2023-11-18T09:11:11;-2.50;99.90
8684;DHT22;4379;59.744;18.206;2023-11-18T09:13:46;-2.60;99.90
8684;DHT22;4379;59.744;18.206;2023-11-18T09:16:16;-2.70;99.90
8684;DHT22;4379;59.744;18.206;2023-11-18T09:18:43;-2.70;99.90
8684;DHT22;4379;59.744;18.206;2023-11-18T09:21:13;-2.60;99.90
8684;DHT22;4379;59.744;18.206;2023-11-18T09:23:46;-2.80;99.90
8684;DHT22;4379;59.744;18.206;2023-11-18T09:26:16;-2.80;99.90
8684;DHT22;4379;59.744;18.206;2023-11-18T09:28:44;-2.80;99.90
8684;DHT22;4379;59.744;18.206;2023-11-18T09:31:12;-2.90;99.90
8684;DHT22;4379;59.744;18.206;2023-11-18T09:33:41;-2.90;99.90
8684;DHT22;4379;59.744;18.206;2023-11-18T09:36:13;-2.70;99.90
8684;DHT22;4379;59.744;18.206;2023-11-18T09:38:41;-2.90;99.90
8684;DHT22;4379;59.744;18.206;2023-11-18T09:41:10;-2.90;99.90
8684;DHT22;4379;59.744;18.206;2023-11-18T09:43:41;-3.00;99.90
8684;DHT22;4379;59.744;18.206;2023-11-18T09:46:14;-3.00;99.90
8684;DHT22;4379;59.744;18.206;2023-11-18T09:48:46;-2.90;99.90
8684;DHT22;4379;59.744;18.206;2023-11-18T09:51:22;-2.90;99.90
8684;DHT22;4379;59.744;18.206;2023-11-18T09:53:53;-2.80;99.90
8684;DHT22;4379;59.744;18.206;2023-11-18T09:56:41;-2.90;99.90
8684;DHT22;4379;59.744;18.206;2023-11-18T09:59:25;-2.80;99.90
8684;DHT22;4379;59.744;18.206;2023-11-18T10:01:57;-2.80;99.90
8684;DHT22;4379;59.744;18.206;2023-11-18T10:04:25;-2.70;99.90
8684;DHT22;4379;59.744;18.206;2023-11-18T10:06:55;-2.60;99.90
8684;DHT22;4379;59.744;18.206;2023-11-18T10:09:24;-2.50;99.90
8684;DHT22;4379;59.744;18.206;2023-11-18T10:12:20;-2.70;99.90
8684;DHT22;4379;59.744;18.206;2023-11-18T10:14:51;-2.70;99.90
8684;DHT22;4379;59.744;18.206;2023-11-18T10:17:19;-2.70;99.90
8684;DHT22;4379;59.744;18.206;2023-11-18T10:19:58;-3.00;99.90
8684;DHT22;4379;59.744;18.206;2023-11-18T10:22:40;-2.90;99.90
8684;DHT22;4379;59.744;18.206;2023-11-18T10:25:07;-3.10;99.90
8684;DHT22;4379;59.744;18.206;2023-11-18T10:27:34;-3.20;99.90
8684;DHT22;4379;59.744;18.206;2023-11-18T10:30:04;-3.10;99.90
8684;DHT22;4379;59.744;18.206;2023-11-18T10:32:32;-3.10;99.90
8684;DHT22;4379;59.744;18.206;2023-11-18T10:35:06;-3.10;99.90
8684;DHT22;4379;59.744;18.206;2023-11-18T10:37:37;-2.90;99.90
8684;DHT22;4379;59.744;18.206;2023-11-18T10:40:11;-3.00;99.90
8684;DHT22;4379;59.744;18.206;2023-11-18T10:42:41;-3.10;99.90
8684;DHT22;4379;59.744;18.206;2023-11-18T10:45:23;-3.00;99.90
8684;DHT22;4379;59.744;18.206;2023-11-18T10:47:52;-3.10;99.90
8684;DHT22;4379;59.744;18.206;2023-11-18T10:50:22;-2.90;99.90
8684;DHT22;4379;59.744;18.206;2023-11-18T10:52:50;-2.70;99.90
8684;DHT22;4379;59.744;18.206;2023-11-18T10:55:18;-2.80;99.90
8684;DHT22;4379;59.744;18.206;2023-11-18T10:57:46;-2.90;99.90
8684;DHT22;4379;59.744;18.206;2023-11-18T11:00:13;-3.00;99.90
8684;DHT22;4379;59.744;18.206;2023-11-18T11:02:42;-2.80;99.90
8684;DHT22;4379;59.744;18.206;2023-11-18T11:05:09;-2.70;99.90
8684;DHT22;4379;59.744;18.206;2023-11-18T11:07:48;-2.60;99.90
8684;DHT22;4379;59.744;18.206;2023-11-18T11:10:18;-2.40;99.90
8684;DHT22;4379;59.744;18.206;2023-11-18T11:12:54;-2.50;99.90
8684;DHT22;4379;59.744;18.206;2023-11-18T11:15:29;-2.70;99.90
8684;DHT22;4379;59.744;18.206;2023-11-18T11:18:08;-2.70;99.90
8684;DHT22;4379;59.744;18.206;2023-11-18T11:20:52;-2.70;99.90
8684;DHT22;4379;59.744;18.206;2023-11-18T11:23:34;-2.80;99.90
8684;DHT22;4379;59.744;18.206;2023-11-18T11:29:25;-2.70;99.90
8684;DHT22;4379;59.744;18.206;2023-11-18T11:34:53;-2.60;99.90
8684;DHT22;4379;59.744;18.206;2023-11-18T11:37:25;-2.70;99.90
8684;DHT22;4379;59.744;18.206;2023-11-18T11:39:57;-2.60;99.90
8684;DHT22;4379;59.744;18.206;2023-11-18T11:42:26;-2.60;99.90
8684;DHT22;4379;59.744;18.206;2023-11-18T11:44:54;-2.40;99.90
8684;DHT22;4379;59.744;18.206;2023-11-18T11:47:23;-2.50;99.90
8684;DHT22;4379;59.744;18.206;2023-11-18T11:50:22;-2.40;99.90
8684;DHT22;4379;59.744;18.206;2023-11-18T11:53:05;-2.50;99.90
8684;DHT22;4379;59.744;18.206;2023-11-18T11:55:53;-2.60;99.90
8684;DHT22;4379;59.744;18.206;2023-11-18T11:58:35;-2.80;99.90
8684;DHT22;4379;59.744;18.206;2023-11-18T12:03:46;-2.80;99.90
8684;DHT22;4379;59.744;18.206;2023-11-18T12:06:19;-2.90;99.90
8684;DHT22;4379;59.744;18.206;2023-11-18T12:08:53;-2.80;99.90
8684;DHT22;4379;59.744;18.206;2023-11-18T12:11:22;-3.00;99.90
8684;DHT22;4379;59.744;18.206;2023-11-18T12:14:06;-3.10;99.90
8684;DHT22;4379;59.744;18.206;2023-11-18T12:17:16;-3.10;99.90
8684;DHT22;4379;59.744;18.206;2023-11-18T12:19:49;-2.80;99.90
8684;DHT22;4379;59.744;18.206;2023-11-18T12:22:21;-2.70;99.90
8684;DHT22;4379;59.744;18.206;2023-11-18T12:35:29;-3.00;99.90
8684;DHT22;4379;59.744;18.206;2023-11-18T12:40:56;-3.20;99.90
8684;DHT22;4379;59.744;18.206;2023-11-18T12:43:48;-3.00;99.90
8684;DHT22;4379;59.744;18.206;2023-11-18T12:49:02;-3.00;99.90
8684;DHT22;4379;59.744;18.206;2023-11-18T12:51:31;-3.20;99.90
8684;DHT22;4379;59.744;18.206;2023-11-18T12:54:01;-3.20;99.90
8684;DHT22;4379;59.744;18.206;2023-11-18T12:56:30;-3.30;99.90
8684;DHT22;4379;59.744;18.206;2023-11-18T12:58:57;-3.40;99.90
8684;DHT22;4379;59.744;18.206;2023-11-18T13:01:25;-3.40;99.90
8684;DHT22;4379;59.744;18.206;2023-11-18T13:03:54;-3.40;99.90
8684;DHT22;4379;59.744;18.206;2023-11-18T13:06:22;-3.30;99.90
8684;DHT22;4379;59.744;18.206;2023-11-18T13:08:53;-3.30;99.90
8684;DHT22;4379;59.744;18.206;2023-11-18T13:11:22;-3.20;99.90
8684;DHT22;4379;59.744;18.206;2023-11-18T13:13:54;-3.20;99.90
8684;DHT22;4379;59.744;18.206;2023-11-18T13:16:21;-3.40;99.90
8684;DHT22;4379;59.744;18.206;2023-11-18T13:18:49;-3.50;99.90
8684;DHT22;4379;59.744;18.206;2023-11-18T13:21:18;-3.50;99.90
8684;DHT22;4379;59.744;18.206;2023-11-18T13:23:46;-3.50;99.90
8684;DHT22;4379;59.744;18.206;2023-11-18T13:26:17;-3.50;99.90
8684;DHT22;4379;59.744;18.206;2023-11-18T13:28:46;-3.40;99.90
8684;DHT22;4379;59.744;18.206;2023-11-18T13:31:17;-3.30;99.90
8684;DHT22;4379;59.744;18.206;2023-11-18T13:33:46;-3.50;99.90
8684;DHT22;4379;59.744;18.206;2023-11-18T13:36:14;-3.50;99.90
8684;DHT22;4379;59.744;18.206;2023-11-18T13:38:41;-3.50;99.90
8684;DHT22;4379;59.744;18.206;2023-11-18T13:41:09;-3.50;99.90
8684;DHT22;4379;59.744;18.206;2023-11-18T13:43:46;-3.50;99.90
8684;DHT22;4379;59.744;18.206;2023-11-18T13:46:19;-3.70;99.90
8684;DHT22;4379;59.744;18.206;2023-11-18T13:48:51;-3.90;99.90
8684;DHT22;4379;59.744;18.206;2023-11-18T13:51:19;-3.70;99.90
8684;DHT22;4379;59.744;18.206;2023-11-18T13:53:48;-3.60;99.90
8684;DHT22;4379;59.744;18.206;2023-11-18T13:56:15;-3.70;99.90
8684;DHT22;4379;59.744;18.206;2023-11-18T13:58:45;-3.90;99.90
8684;DHT22;4379;59.744;18.206;2023-11-18T14:01:12;-3.90;99.90
8684;DHT22;4379;59.744;18.206;2023-11-18T14:03:40;-3.90;99.90
8684;DHT22;4379;59.744;18.206;2023-11-18T14:06:08;-3.90;99.90
8684;DHT22;4379;59.744;18.206;2023-11-18T14:08:38;-3.90;99.90
8684;DHT22;4379;59.744;18.206;2023-11-18T14:11:06;-3.90;99.90
8684;DHT22;4379;59.744;18.206;2023-11-18T14:13:43;-3.90;99.90
8684;DHT22;4379;59.744;18.206;2023-11-18T14:16:11;-3.90;99.90
8684;DHT22;4379;59.744;18.206;2023-11-18T14:18:39;-3.90;99.90
8684;DHT22;4379;59.744;18.206;2023-11-18T14:21:09;-3.80;99.90
8684;DHT22;4379;59.744;18.206;2023-11-18T14:23:36;-3.90;99.90
8684;DHT22;4379;59.744;18.206;2023-11-18T14:26:05;-3.80;99.90
8684;DHT22;4379;59.744;18.206;2023-11-18T14:28:34;-3.90;99.90
8684;DHT22;4379;59.744;18.206;2023-11-18T14:31:02;-3.90;99.90
8684;DHT22;4379;59.744;18.206;2023-11-18T14:33:34;-3.90;99.90
8684;DHT22;4379;59.744;18.206;2023-11-18T14:36:01;-3.90;99.90
8684;DHT22;4379;59.744;18.206;2023-11-18T14:38:32;-3.90;99.90
8684;DHT22;4379;59.744;18.206;2023-11-18T14:41:01;-3.90;99.90
8684;DHT22;4379;59.744;18.206;2023-11-18T14:43:30;-3.90;99.90
8684;DHT22;4379;59.744;18.206;2023-11-18T14:45:57;-3.90;99.90
8684;DHT22;4379;59.744;18.206;2023-11-18T14:48:24;-3.80;99.90
8684;DHT22;4379;59.744;18.206;2023-11-18T14:50:51;-3.90;99.90
8684;DHT22;4379;59.744;18.206;2023-11-18T14:53:19;-3.80;99.90
8684;DHT22;4379;59.744;18.206;2023-11-18T14:55:46;-3.80;99.90
8684;DHT22;4379;59.744;18.206;2023-11-18T14:58:13;-4.00;99.90
8684;DHT22;4379;59.744;18.206;2023-11-18T15:00:40;-4.00;99.90
8684;DHT22;4379;59.744;18.206;2023-11-18T15:03:09;-3.90;99.90
8684;DHT22;4379;59.744;18.206;2023-11-18T15:05:37;-4.00;99.90
8684;DHT22;4379;59.744;18.206;2023-11-18T15:08:05;-3.90;99.90
8684;DHT22;4379;59.744;18.206;2023-11-18T15:10:36;-3.90;99.90
8684;DHT22;4379;59.744;18.206;2023-11-18T15:13:06;-3.90;99.90
8684;DHT22;4379;59.744;18.206;2023-11-18T15:15:33;-3.90;99.90
8684;DHT22;4379;59.744;18.206;2023-11-18T15:18:03;-3.90;99.90
8684;DHT22;4379;59.744;18.206;2023-11-18T15:20:32;-4.00;99.90
8684;DHT22;4379;59.744;18.206;2023-11-18T15:22:59;-4.10;99.90
8684;DHT22;4379;59.744;18.206;2023-11-18T15:25:27;-4.10;99.90
8684;DHT22;4379;59.744;18.206;2023-11-18T15:27:54;-4.00;99.90
8684;DHT22;4379;59.744;18.206;2023-11-18T15:30:23;-4.10;99.90
8684;DHT22;4379;59.744;18.206;2023-11-18T15:32:51;-4.10;99.90
8684;DHT22;4379;59.744;18.206;2023-11-18T15:35:19;-4.20;99.90
8684;DHT22;4379;59.744;18.206;2023-11-18T15:37:48;-4.10;99.90
8684;DHT22;4379;59.744;18.206;2023-11-18T15:40:16;-4.10;99.90
8684;DHT22;4379;59.744;18.206;2023-11-18T15:42:47;-4.00;99.90
8684;DHT22;4379;59.744;18.206;2023-11-18T15:45:19;-4.00;99.90
8684;DHT22;4379;59.744;18.206;2023-11-18T15:47:47;-4.00;99.90
8684;DHT22;4379;59.744;18.206;2023-11-18T15:50:16;-4.10;99.90
8684;DHT22;4379;59.744;18.206;2023-11-18T15:52:50;-4.10;99.90
8684;DHT22;4379;59.744;18.206;2023-11-18T15:55:21;-4.10;99.90
8684;DHT22;4379;59.744;18.206;2023-11-18T15:57:53;-4.00;99.90
8684;DHT22;4379;59.744;18.206;2023-11-18T16:00:22;-4.00;99.90
8684;DHT22;4379;59.744;18.206;2023-11-18T16:02:55;-4.10;99.90
8684;DHT22;4379;59.744;18.206;2023-11-18T16:05:28;-4.20;99.90
8684;DHT22;4379;59.744;18.206;2023-11-18T16:08:02;-4.10;99.90
8684;DHT22;4379;59.744;18.206;2023-11-18T16:10:31;-4.00;99.90
8684;DHT22;4379;59.744;18.206;2023-11-18T16:12:59;-4.00;99.90
8684;DHT22;4379;59.744;18.206;2023-11-18T16:15:27;-4.00;99.90
8684;DHT22;4379;59.744;18.206;2023-11-18T16:17:56;-4.00;99.90
8684;DHT22;4379;59.744;18.206;2023-11-18T16:20:27;-4.00;99.90
8684;DHT22;4379;59.744;18.206;2023-11-18T16:22:55;-4.00;99.90
8684;DHT22;4379;59.744;18.206;2023-11-18T16:25:25;-4.00;99.90
8684;DHT22;4379;59.744;18.206;2023-11-18T16:27:56;-4.00;99.90
8684;DHT22;4379;59.744;18.206;2023-11-18T16:30:26;-4.00;99.90